Aviation Digital Data Service (ADDS)

Output produced by METARs form (1330 UTC 20 October 2021)
found at http://www.aviationweather.gov/metar/data/
 
METAR text: ROYN 201300Z AUTO 15002KT 9999 FEW035 SCT042 OVC046 23/23 Q1015
Conditions at: ROYN (YONAGUNI AIRPORT, JP) observed 1300 UTC 20 October 2021
Temperature: 23.0°C (73°F)
Dewpoint: 23.0°C (73°F) [RH = 100%]
Pressure (altimeter): 29.97 inches Hg (1015.0 mb)
Winds: from the SSE (150 degrees) at 2 MPH (2 knots; 1.0 m/s)
Visibility: 6 or more miles (10+ km)
Ceiling: 4600 feet AGL
Clouds: few clouds at 3500 feet AGL
scattered clouds at 4200 feet AGL
overcast cloud deck at 4600 feet AGL
Weather: no significant weather observed at this time

METAR text: ROYN 201200Z AUTO 14002KT 9999 FEW039 SCT041 BKN046 23/23 Q1015
Conditions at: ROYN (YONAGUNI AIRPORT, JP) observed 1200 UTC 20 October 2021
Temperature: 23.0°C (73°F)
Dewpoint: 23.0°C (73°F) [RH = 100%]
Pressure (altimeter): 29.97 inches Hg (1015.0 mb)
Winds: from the SE (140 degrees) at 2 MPH (2 knots; 1.0 m/s)
Visibility: 6 or more miles (10+ km)
Ceiling: 4600 feet AGL
Clouds: few clouds at 3900 feet AGL
scattered clouds at 4100 feet AGL
broken clouds at 4600 feet AGL
Weather: no significant weather observed at this time

METAR text: ROYN 201100Z AUTO 16003KT 9999 BKN048 OVC130 23/23 Q1014
Conditions at: ROYN (YONAGUNI AIRPORT, JP) observed 1100 UTC 20 October 2021
Temperature: 23.0°C (73°F)
Dewpoint: 23.0°C (73°F) [RH = 100%]
Pressure (altimeter): 29.94 inches Hg (1014.0 mb)
Winds: from the SSE (160 degrees) at 3 MPH (3 knots; 1.5 m/s)
Visibility: 6 or more miles (10+ km)
Ceiling: 4800 feet AGL
Clouds: broken clouds at 4800 feet AGL
overcast cloud deck at 13000 feet AGL
Weather: no significant weather observed at this time

METAR text: ROYN 201000Z AUTO VRB01KT 9999 FEW038 SCT044 BKN080 23/22 Q1014
Conditions at: ROYN (YONAGUNI AIRPORT, JP) observed 1000 UTC 20 October 2021
Temperature: 23.0°C (73°F)
Dewpoint: 22.0°C (72°F) [RH = 94%]
Pressure (altimeter): 29.94 inches Hg (1014.0 mb)
Winds: variable direction winds at 1 MPH (1 knots; 0.5 m/s)
Visibility: 6 or more miles (10+ km)
Ceiling: 8000 feet AGL
Clouds: few clouds at 3800 feet AGL
scattered clouds at 4400 feet AGL
broken clouds at 8000 feet AGL
Weather: no significant weather observed at this time

METAR text: ROYN 200900Z AUTO 23003KT 9999 FEW021 BKN036 BKN045 23/23 Q1014
Conditions at: ROYN (YONAGUNI AIRPORT, JP) observed 0900 UTC 20 October 2021
Temperature: 23.0°C (73°F)
Dewpoint: 23.0°C (73°F) [RH = 100%]
Pressure (altimeter): 29.94 inches Hg (1014.0 mb)
Winds: from the SW (230 degrees) at 3 MPH (3 knots; 1.5 m/s)
Visibility: 6 or more miles (10+ km)
Ceiling: 3600 feet AGL
Clouds: few clouds at 2100 feet AGL
broken clouds at 3600 feet AGL
broken clouds at 4500 feet AGL
Weather: no significant weather observed at this time

METAR text: ROYN 200800Z AUTO 02003KT 350V050 9999 BKN040 OVC050 24/22 Q1014
Conditions at: ROYN (YONAGUNI AIRPORT, JP) observed 0800 UTC 20 October 2021
Temperature: 24.0°C (75°F)
Dewpoint: 22.0°C (72°F) [RH = 89%]
Pressure (altimeter): 29.94 inches Hg (1014.0 mb)
Winds: from the NNE (20 degrees) at 3 MPH (3 knots; 1.5 m/s)
Visibility: 6 or more miles (10+ km)
Ceiling: 4000 feet AGL
Clouds: broken clouds at 4000 feet AGL
overcast cloud deck at 5000 feet AGL
Weather: no significant weather observed at this time

METAR text: ROYN 200734Z AUTO VRB02KT 9999 -RA FEW007 SCT034 BKN038 23/22 Q1014 RMK A2996
Conditions at: ROYN (YONAGUNI AIRPORT, JP) observed 0734 UTC 20 October 2021
Temperature: 23.0°C (73°F)
Dewpoint: 22.0°C (72°F) [RH = 94%]
Pressure (altimeter): 29.94 inches Hg (1014.0 mb)
Winds: variable direction winds at 2 MPH (2 knots; 1.0 m/s)
Visibility: 6 or more miles (10+ km)
Ceiling: 3800 feet AGL
Clouds: few clouds at 700 feet AGL
scattered clouds at 3400 feet AGL
broken clouds at 3800 feet AGL
Weather: -RA  (light rain)

METAR text: ROYN 200722Z AUTO 18006KT 5000 RA BR FEW007 SCT013 BKN020 23/22 Q1014 RMK A2996 RI011
Conditions at: ROYN (YONAGUNI AIRPORT, JP) observed 0722 UTC 20 October 2021
Temperature: 23.0°C (73°F)
Dewpoint: 22.0°C (72°F) [RH = 94%]
Pressure (altimeter): 29.94 inches Hg (1014.0 mb)
Winds: from the S (180 degrees) at 7 MPH (6 knots; 3.1 m/s)
Visibility: 3 miles ( 5 km)
Ceiling: 2000 feet AGL
Clouds: few clouds at 700 feet AGL
scattered clouds at 1300 feet AGL
broken clouds at 2000 feet AGL
Weather: RA BR  (moderate rain, mist)

METAR text: ROYN 200700Z AUTO 18010KT 150V210 9000 -RA FEW016 BKN020 BKN023 23/22 Q1014
Conditions at: ROYN (YONAGUNI AIRPORT, JP) observed 0700 UTC 20 October 2021
Temperature: 23.0°C (73°F)
Dewpoint: 22.0°C (72°F) [RH = 94%]
Pressure (altimeter): 29.94 inches Hg (1014.0 mb)
Winds: from the S (180 degrees) at 12 MPH (10 knots; 5.1 m/s)
Visibility: 6 miles ( 9 km)
Ceiling: 2000 feet AGL
Clouds: few clouds at 1600 feet AGL
broken clouds at 2000 feet AGL
broken clouds at 2300 feet AGL
Weather: -RA  (light rain)

METAR text: ROYN 200600Z AUTO 07007KT 9999 FEW015 SCT038 BKN046 25/23 Q1014
Conditions at: ROYN (YONAGUNI AIRPORT, JP) observed 0600 UTC 20 October 2021
Temperature: 25.0°C (77°F)
Dewpoint: 23.0°C (73°F) [RH = 89%]
Pressure (altimeter): 29.94 inches Hg (1014.0 mb)
Winds: from the ENE (70 degrees) at 8 MPH (7 knots; 3.6 m/s)
Visibility: 6 or more miles (10+ km)
Ceiling: 4600 feet AGL
Clouds: few clouds at 1500 feet AGL
scattered clouds at 3800 feet AGL
broken clouds at 4600 feet AGL
Weather: no significant weather observed at this time

METAR text: ROYN 200540Z AUTO 07007KT 9999 -RA SCT017 SCT021 BKN026 25/24 Q1014 RMK A2996
Conditions at: ROYN (YONAGUNI AIRPORT, JP) observed 0540 UTC 20 October 2021
Temperature: 25.0°C (77°F)
Dewpoint: 24.0°C (75°F) [RH = 94%]
Pressure (altimeter): 29.94 inches Hg (1014.0 mb)
Winds: from the ENE (70 degrees) at 8 MPH (7 knots; 3.6 m/s)
Visibility: 6 or more miles (10+ km)
Ceiling: 2600 feet AGL
Clouds: scattered clouds at 1700 feet AGL
scattered clouds at 2100 feet AGL
broken clouds at 2600 feet AGL
Weather: -RA  (light rain)

METAR text: ROYN 200523Z AUTO 07007KT 040V100 4500 -RA BR FEW017 SCT020 BKN030 24/22 Q1014 RMK A2997
Conditions at: ROYN (YONAGUNI AIRPORT, JP) observed 0523 UTC 20 October 2021
Temperature: 24.0°C (75°F)
Dewpoint: 22.0°C (72°F) [RH = 89%]
Pressure (altimeter): 29.94 inches Hg (1014.0 mb)
Winds: from the ENE (70 degrees) at 8 MPH (7 knots; 3.6 m/s)
Visibility: 2.80 miles (4.51 km)
Ceiling: 3000 feet AGL
Clouds: few clouds at 1700 feet AGL
scattered clouds at 2000 feet AGL
broken clouds at 3000 feet AGL
Weather: -RA BR  (light rain, mist)

METAR text: ROYN 200516Z AUTO 07008KT 6000 -RA FEW017 SCT020 BKN025 24/23 Q1015 RMK A2997
Conditions at: ROYN (YONAGUNI AIRPORT, JP) observed 0516 UTC 20 October 2021
Temperature: 24.0°C (75°F)
Dewpoint: 23.0°C (73°F) [RH = 94%]
Pressure (altimeter): 29.97 inches Hg (1015.0 mb)
Winds: from the ENE (70 degrees) at 9 MPH (8 knots; 4.1 m/s)
Visibility: 4 miles ( 6 km)
Ceiling: 2500 feet AGL
Clouds: few clouds at 1700 feet AGL
scattered clouds at 2000 feet AGL
broken clouds at 2500 feet AGL
Weather: -RA  (light rain)

METAR text: ROYN 200503Z AUTO 07008KT 030V100 4600 -RA BR FEW017 SCT021 BKN025 25/23 Q1015 RMK A2998
Conditions at: ROYN (YONAGUNI AIRPORT, JP) observed 0503 UTC 20 October 2021
Temperature: 25.0°C (77°F)
Dewpoint: 23.0°C (73°F) [RH = 89%]
Pressure (altimeter): 29.97 inches Hg (1015.0 mb)
Winds: from the ENE (70 degrees) at 9 MPH (8 knots; 4.1 m/s)
Visibility: 2.86 miles (4.60 km)
Ceiling: 2500 feet AGL
Clouds: few clouds at 1700 feet AGL
scattered clouds at 2100 feet AGL
broken clouds at 2500 feet AGL
Weather: -RA BR  (light rain, mist)

METAR text: ROYN 200500Z AUTO 07008KT 030V100 5000 -RA BR SCT017 SCT021 BKN023 24/23 Q1015
Conditions at: ROYN (YONAGUNI AIRPORT, JP) observed 0500 UTC 20 October 2021
Temperature: 24.0°C (75°F)
Dewpoint: 23.0°C (73°F) [RH = 94%]
Pressure (altimeter): 29.97 inches Hg (1015.0 mb)
Winds: from the ENE (70 degrees) at 9 MPH (8 knots; 4.1 m/s)
Visibility: 3 miles ( 5 km)
Ceiling: 2300 feet AGL
Clouds: scattered clouds at 1700 feet AGL
scattered clouds at 2100 feet AGL
broken clouds at 2300 feet AGL
Weather: -RA BR  (light rain, mist)

METAR text: ROYN 200441Z AUTO 09008KT 060V120 4900 RA BR BKN017 OVC023 24/23 Q1015 RMK A2998 RI004
Conditions at: ROYN (YONAGUNI AIRPORT, JP) observed 0441 UTC 20 October 2021
Temperature: 24.0°C (75°F)
Dewpoint: 23.0°C (73°F) [RH = 94%]
Pressure (altimeter): 29.97 inches Hg (1015.0 mb)
Winds: from the E (90 degrees) at 9 MPH (8 knots; 4.1 m/s)
Visibility: 3 miles ( 5 km)
Ceiling: 1700 feet AGL
Clouds: broken clouds at 1700 feet AGL
overcast cloud deck at 2300 feet AGL
Weather: RA BR  (moderate rain, mist)

METAR text: ROYN 200439Z AUTO 08008KT 060V120 5000 RA BR BKN017 OVC023 24/22 Q1015 RMK A2998 RI003
Conditions at: ROYN (YONAGUNI AIRPORT, JP) observed 0439 UTC 20 October 2021
Temperature: 24.0°C (75°F)
Dewpoint: 22.0°C (72°F) [RH = 89%]
Pressure (altimeter): 29.97 inches Hg (1015.0 mb)
Winds: from the E (80 degrees) at 9 MPH (8 knots; 4.1 m/s)
Visibility: 3 miles ( 5 km)
Ceiling: 1700 feet AGL
Clouds: broken clouds at 1700 feet AGL
overcast cloud deck at 2300 feet AGL
Weather: RA BR  (moderate rain, mist)

METAR text: ROYN 200433Z AUTO 08008KT 3000 RA BR SCT017 BKN020 BKN022 25/23 Q1015 RMK A2998 RI003
Conditions at: ROYN (YONAGUNI AIRPORT, JP) observed 0433 UTC 20 October 2021
Temperature: 25.0°C (77°F)
Dewpoint: 23.0°C (73°F) [RH = 89%]
Pressure (altimeter): 29.97 inches Hg (1015.0 mb)
Winds: from the E (80 degrees) at 9 MPH (8 knots; 4.1 m/s)
Visibility: 1.86 miles (2.99 km)
Ceiling: 2000 feet AGL
Clouds: scattered clouds at 1700 feet AGL
broken clouds at 2000 feet AGL
broken clouds at 2200 feet AGL
Weather: RA BR  (moderate rain, mist)

METAR text: ROYN 200427Z AUTO 07010KT 5000 RA BR SCT017 BKN020 OVC033 25/23 Q1015 RMK A2998 RI008
Conditions at: ROYN (YONAGUNI AIRPORT, JP) observed 0427 UTC 20 October 2021
Temperature: 25.0°C (77°F)
Dewpoint: 23.0°C (73°F) [RH = 89%]
Pressure (altimeter): 29.97 inches Hg (1015.0 mb)
Winds: from the ENE (70 degrees) at 12 MPH (10 knots; 5.1 m/s)
Visibility: 3 miles ( 5 km)
Ceiling: 2000 feet AGL
Clouds: scattered clouds at 1700 feet AGL
broken clouds at 2000 feet AGL
overcast cloud deck at 3300 feet AGL
Weather: RA BR  (moderate rain, mist)

METAR text: ROYN 200422Z AUTO 06011KT 1700 RA BR BKN017 BKN023 OVC030 25/23 Q1015 RMK A2999 RI009
Conditions at: ROYN (YONAGUNI AIRPORT, JP) observed 0422 UTC 20 October 2021
Temperature: 25.0°C (77°F)
Dewpoint: 23.0°C (73°F) [RH = 89%]
Pressure (altimeter): 29.97 inches Hg (1015.0 mb)
Winds: from the ENE (60 degrees) at 13 MPH (11 knots; 5.7 m/s)
Visibility: 1.06 miles (1.71 km)
Ceiling: 1700 feet AGL
Clouds: broken clouds at 1700 feet AGL
broken clouds at 2300 feet AGL
overcast cloud deck at 3000 feet AGL
Weather: RA BR  (moderate rain, mist)

METAR text: ROYN 200417Z AUTO 06010KT 4600 -RA BR SCT017 BKN022 BKN025 25/23 Q1015 RMK A2999
Conditions at: ROYN (YONAGUNI AIRPORT, JP) observed 0417 UTC 20 October 2021
Temperature: 25.0°C (77°F)
Dewpoint: 23.0°C (73°F) [RH = 89%]
Pressure (altimeter): 29.97 inches Hg (1015.0 mb)
Winds: from the ENE (60 degrees) at 12 MPH (10 knots; 5.1 m/s)
Visibility: 2.86 miles (4.60 km)
Ceiling: 2200 feet AGL
Clouds: scattered clouds at 1700 feet AGL
broken clouds at 2200 feet AGL
broken clouds at 2500 feet AGL
Weather: -RA BR  (light rain, mist)

METAR text: ROYN 200400Z AUTO 06012KT 9999 -RA FEW021 BKN030 OVC036 26/22 Q1015
Conditions at: ROYN (YONAGUNI AIRPORT, JP) observed 0400 UTC 20 October 2021
Temperature: 26.0°C (79°F)
Dewpoint: 22.0°C (72°F) [RH = 79%]
Pressure (altimeter): 29.97 inches Hg (1015.0 mb)
Winds: from the ENE (60 degrees) at 14 MPH (12 knots; 6.2 m/s)
Visibility: 6 or more miles (10+ km)
Ceiling: 3000 feet AGL
Clouds: few clouds at 2100 feet AGL
broken clouds at 3000 feet AGL
overcast cloud deck at 3600 feet AGL
Weather: -RA  (light rain)

METAR text: ROYN 200300Z AUTO 06008KT 030V110 9999 FEW023 SCT033 BKN040 26/21 Q1016
Conditions at: ROYN (YONAGUNI AIRPORT, JP) observed 0300 UTC 20 October 2021
Temperature: 26.0°C (79°F)
Dewpoint: 21.0°C (70°F) [RH = 74%]
Pressure (altimeter): 30.00 inches Hg (1016.0 mb)
Winds: from the ENE (60 degrees) at 9 MPH (8 knots; 4.1 m/s)
Visibility: 6 or more miles (10+ km)
Ceiling: 4000 feet AGL
Clouds: few clouds at 2300 feet AGL
scattered clouds at 3300 feet AGL
broken clouds at 4000 feet AGL
Weather: no significant weather observed at this time

METAR text: ROYN 200200Z AUTO 07011KT 9999 FEW038 OVC050 27/22 Q1017
Conditions at: ROYN (YONAGUNI AIRPORT, JP) observed 0200 UTC 20 October 2021
Temperature: 27.0°C (81°F)
Dewpoint: 22.0°C (72°F) [RH = 74%]
Pressure (altimeter): 30.03 inches Hg (1017.0 mb)
Winds: from the ENE (70 degrees) at 13 MPH (11 knots; 5.7 m/s)
Visibility: 6 or more miles (10+ km)
Ceiling: 5000 feet AGL
Clouds: few clouds at 3800 feet AGL
overcast cloud deck at 5000 feet AGL
Weather: no significant weather observed at this time

METAR text: ROYN 200100Z AUTO 05012KT 9999 NSC 26/21 Q1018
Conditions at: ROYN (YONAGUNI AIRPORT, JP) observed 0100 UTC 20 October 2021
Temperature: 26.0°C (79°F)
Dewpoint: 21.0°C (70°F) [RH = 74%]
Pressure (altimeter): 30.06 inches Hg (1018.0 mb)
Winds: from the NE (50 degrees) at 14 MPH (12 knots; 6.2 m/s)
Visibility: 6 or more miles (10+ km)
Ceiling: at least 12,000 feet AGL
Clouds: sky clear below 12,000 feet AGL
Weather: no significant weather observed at this time

METAR text: ROYN 200000Z AUTO 05012KT 9999 FEW027 SCT035 BKN050 26/21 Q1017
Conditions at: ROYN (YONAGUNI AIRPORT, JP) observed 0000 UTC 20 October 2021
Temperature: 26.0°C (79°F)
Dewpoint: 21.0°C (70°F) [RH = 74%]
Pressure (altimeter): 30.03 inches Hg (1017.0 mb)
Winds: from the NE (50 degrees) at 14 MPH (12 knots; 6.2 m/s)
Visibility: 6 or more miles (10+ km)
Ceiling: 5000 feet AGL
Clouds: few clouds at 2700 feet AGL
scattered clouds at 3500 feet AGL
broken clouds at 5000 feet AGL
Weather: no significant weather observed at this time

METAR text: ROYN 192300Z AUTO 05011KT 9999 FEW029 SCT036 BKN041 26/21 Q1017
Conditions at: ROYN (YONAGUNI AIRPORT, JP) observed 2300 UTC 19 October 2021
Temperature: 26.0°C (79°F)
Dewpoint: 21.0°C (70°F) [RH = 74%]
Pressure (altimeter): 30.03 inches Hg (1017.0 mb)
Winds: from the NE (50 degrees) at 13 MPH (11 knots; 5.7 m/s)
Visibility: 6 or more miles (10+ km)
Ceiling: 4100 feet AGL
Clouds: few clouds at 2900 feet AGL
scattered clouds at 3600 feet AGL
broken clouds at 4100 feet AGL
Weather: no significant weather observed at this time

METAR text: ROYN 192200Z AUTO 05011KT 9999 BKN049 25/20 Q1017
Conditions at: ROYN (YONAGUNI AIRPORT, JP) observed 2200 UTC 19 October 2021
Temperature: 25.0°C (77°F)
Dewpoint: 20.0°C (68°F) [RH = 74%]
Pressure (altimeter): 30.03 inches Hg (1017.0 mb)
Winds: from the NE (50 degrees) at 13 MPH (11 knots; 5.7 m/s)
Visibility: 6 or more miles (10+ km)
Ceiling: 4900 feet AGL
Clouds: broken clouds at 4900 feet AGL
Weather: no significant weather observed at this time

METAR text: ROYN 192100Z AUTO 05012KT 9999 SCT029 OVC050 25/20 Q1016
Conditions at: ROYN (YONAGUNI AIRPORT, JP) observed 2100 UTC 19 October 2021
Temperature: 25.0°C (77°F)
Dewpoint: 20.0°C (68°F) [RH = 74%]
Pressure (altimeter): 30.00 inches Hg (1016.0 mb)
Winds: from the NE (50 degrees) at 14 MPH (12 knots; 6.2 m/s)
Visibility: 6 or more miles (10+ km)
Ceiling: 5000 feet AGL
Clouds: scattered clouds at 2900 feet AGL
overcast cloud deck at 5000 feet AGL
Weather: no significant weather observed at this time

METAR text: ROYN 192000Z AUTO 07011KT 9000 -RA FEW027 BKN030 BKN038 24/20 Q1016
Conditions at: ROYN (YONAGUNI AIRPORT, JP) observed 2000 UTC 19 October 2021
Temperature: 24.0°C (75°F)
Dewpoint: 20.0°C (68°F) [RH = 78%]
Pressure (altimeter): 30.00 inches Hg (1016.0 mb)
Winds: from the ENE (70 degrees) at 13 MPH (11 knots; 5.7 m/s)
Visibility: 6 miles ( 9 km)
Ceiling: 3000 feet AGL
Clouds: few clouds at 2700 feet AGL
broken clouds at 3000 feet AGL
broken clouds at 3800 feet AGL
Weather: -RA  (light rain)

METAR text: ROYN 191900Z AUTO 05012KT 9999 -RA FEW028 SCT030 BKN036 25/20 Q1016
Conditions at: ROYN (YONAGUNI AIRPORT, JP) observed 1900 UTC 19 October 2021
Temperature: 25.0°C (77°F)
Dewpoint: 20.0°C (68°F) [RH = 74%]
Pressure (altimeter): 30.00 inches Hg (1016.0 mb)
Winds: from the NE (50 degrees) at 14 MPH (12 knots; 6.2 m/s)
Visibility: 6 or more miles (10+ km)
Ceiling: 3600 feet AGL
Clouds: few clouds at 2800 feet AGL
scattered clouds at 3000 feet AGL
broken clouds at 3600 feet AGL
Weather: -RA  (light rain)

METAR text: ROYN 191800Z AUTO 05014KT 9999 SCT027 25/20 Q1016
Conditions at: ROYN (YONAGUNI AIRPORT, JP) observed 1800 UTC 19 October 2021
Temperature: 25.0°C (77°F)
Dewpoint: 20.0°C (68°F) [RH = 74%]
Pressure (altimeter): 30.00 inches Hg (1016.0 mb)
Winds: from the NE (50 degrees) at 16 MPH (14 knots; 7.2 m/s)
Visibility: 6 or more miles (10+ km)
Ceiling: at least 12,000 feet AGL
Clouds: scattered clouds at 2700 feet AGL
Weather: no significant weather observed at this time

METAR text: ROYN 191700Z AUTO 04016KT 9999 FEW025 SCT036 25/20 Q1017
Conditions at: ROYN (YONAGUNI AIRPORT, JP) observed 1700 UTC 19 October 2021
Temperature: 25.0°C (77°F)
Dewpoint: 20.0°C (68°F) [RH = 74%]
Pressure (altimeter): 30.03 inches Hg (1017.0 mb)
Winds: from the NE (40 degrees) at 18 MPH (16 knots; 8.2 m/s)
Visibility: 6 or more miles (10+ km)
Ceiling: at least 12,000 feet AGL
Clouds: few clouds at 2500 feet AGL
scattered clouds at 3600 feet AGL
Weather: no significant weather observed at this time

METAR text: ROYN 191600Z AUTO 05016KT 9999 FEW024 SCT027 BKN070 25/21 Q1017
Conditions at: ROYN (YONAGUNI AIRPORT, JP) observed 1600 UTC 19 October 2021
Temperature: 25.0°C (77°F)
Dewpoint: 21.0°C (70°F) [RH = 79%]
Pressure (altimeter): 30.03 inches Hg (1017.0 mb)
Winds: from the NE (50 degrees) at 18 MPH (16 knots; 8.2 m/s)
Visibility: 6 or more miles (10+ km)
Ceiling: 7000 feet AGL
Clouds: few clouds at 2400 feet AGL
scattered clouds at 2700 feet AGL
broken clouds at 7000 feet AGL
Weather: no significant weather observed at this time

METAR text: ROYN 191500Z AUTO 04015KT 9999 SCT027 SCT029 BKN043 25/20 Q1018
Conditions at: ROYN (YONAGUNI AIRPORT, JP) observed 1500 UTC 19 October 2021
Temperature: 25.0°C (77°F)
Dewpoint: 20.0°C (68°F) [RH = 74%]
Pressure (altimeter): 30.06 inches Hg (1018.0 mb)
Winds: from the NE (40 degrees) at 17 MPH (15 knots; 7.7 m/s)
Visibility: 6 or more miles (10+ km)
Ceiling: 4300 feet AGL
Clouds: scattered clouds at 2700 feet AGL
scattered clouds at 2900 feet AGL
broken clouds at 4300 feet AGL
Weather: no significant weather observed at this time

METAR text: ROYN 191400Z AUTO 03018KT 9999 FEW025 BKN047 BKN050 25/21 Q1018
Conditions at: ROYN (YONAGUNI AIRPORT, JP) observed 1400 UTC 19 October 2021
Temperature: 25.0°C (77°F)
Dewpoint: 21.0°C (70°F) [RH = 79%]
Pressure (altimeter): 30.06 inches Hg (1018.0 mb)
Winds: from the NNE (30 degrees) at 21 MPH (18 knots; 9.3 m/s)
Visibility: 6 or more miles (10+ km)
Ceiling: 4700 feet AGL
Clouds: few clouds at 2500 feet AGL
broken clouds at 4700 feet AGL
broken clouds at 5000 feet AGL
Weather: no significant weather observed at this time

METAR text: ROYN 191300Z AUTO 04018KT 9999 SCT031 OVC070 25/20 Q1018
Conditions at: ROYN (YONAGUNI AIRPORT, JP) observed 1300 UTC 19 October 2021
Temperature: 25.0°C (77°F)
Dewpoint: 20.0°C (68°F) [RH = 74%]
Pressure (altimeter): 30.06 inches Hg (1018.0 mb)
Winds: from the NE (40 degrees) at 21 MPH (18 knots; 9.3 m/s)
Visibility: 6 or more miles (10+ km)
Ceiling: 7000 feet AGL
Clouds: scattered clouds at 3100 feet AGL
overcast cloud deck at 7000 feet AGL
Weather: no significant weather observed at this time

METAR text: ROYN 191200Z AUTO 03018KT 9999 FEW031 OVC060 25/20 Q1018
Conditions at: ROYN (YONAGUNI AIRPORT, JP) observed 1200 UTC 19 October 2021
Temperature: 25.0°C (77°F)
Dewpoint: 20.0°C (68°F) [RH = 74%]
Pressure (altimeter): 30.06 inches Hg (1018.0 mb)
Winds: from the NNE (30 degrees) at 21 MPH (18 knots; 9.3 m/s)
Visibility: 6 or more miles (10+ km)
Ceiling: 6000 feet AGL
Clouds: few clouds at 3100 feet AGL
overcast cloud deck at 6000 feet AGL
Weather: no significant weather observed at this time

METAR text: ROYN 191100Z AUTO 03016KT 9999 FEW032 OVC070 25/19 Q1017
Conditions at: ROYN (YONAGUNI AIRPORT, JP) observed 1100 UTC 19 October 2021
Temperature: 25.0°C (77°F)
Dewpoint: 19.0°C (66°F) [RH = 69%]
Pressure (altimeter): 30.03 inches Hg (1017.0 mb)
Winds: from the NNE (30 degrees) at 18 MPH (16 knots; 8.2 m/s)
Visibility: 6 or more miles (10+ km)
Ceiling: 7000 feet AGL
Clouds: few clouds at 3200 feet AGL
overcast cloud deck at 7000 feet AGL
Weather: no significant weather observed at this time

METAR text: ROYN 191000Z AUTO 04016KT 9999 SCT031 SCT037 BKN050 25/20 Q1017
Conditions at: ROYN (YONAGUNI AIRPORT, JP) observed 1000 UTC 19 October 2021
Temperature: 25.0°C (77°F)
Dewpoint: 20.0°C (68°F) [RH = 74%]
Pressure (altimeter): 30.03 inches Hg (1017.0 mb)
Winds: from the NE (40 degrees) at 18 MPH (16 knots; 8.2 m/s)
Visibility: 6 or more miles (10+ km)
Ceiling: 5000 feet AGL
Clouds: scattered clouds at 3100 feet AGL
scattered clouds at 3700 feet AGL
broken clouds at 5000 feet AGL
Weather: no significant weather observed at this time

METAR text: ROYN 190900Z AUTO 02017KT 9999 FEW030 BKN036 BKN042 25/20 Q1017
Conditions at: ROYN (YONAGUNI AIRPORT, JP) observed 0900 UTC 19 October 2021
Temperature: 25.0°C (77°F)
Dewpoint: 20.0°C (68°F) [RH = 74%]
Pressure (altimeter): 30.03 inches Hg (1017.0 mb)
Winds: from the NNE (20 degrees) at 20 MPH (17 knots; 8.7 m/s)
Visibility: 6 or more miles (10+ km)
Ceiling: 3600 feet AGL
Clouds: few clouds at 3000 feet AGL
broken clouds at 3600 feet AGL
broken clouds at 4200 feet AGL
Weather: no significant weather observed at this time

METAR text: ROYN 190800Z AUTO 03018KT 9999 FEW027 SCT040 BKN046 25/20 Q1016
Conditions at: ROYN (YONAGUNI AIRPORT, JP) observed 0800 UTC 19 October 2021
Temperature: 25.0°C (77°F)
Dewpoint: 20.0°C (68°F) [RH = 74%]
Pressure (altimeter): 30.00 inches Hg (1016.0 mb)
Winds: from the NNE (30 degrees) at 21 MPH (18 knots; 9.3 m/s)
Visibility: 6 or more miles (10+ km)
Ceiling: 4600 feet AGL
Clouds: few clouds at 2700 feet AGL
scattered clouds at 4000 feet AGL
broken clouds at 4600 feet AGL
Weather: no significant weather observed at this time

METAR text: ROYN 190700Z AUTO 02016KT 9999 SCT029 BKN036 OVC040 26/20 Q1016
Conditions at: ROYN (YONAGUNI AIRPORT, JP) observed 0700 UTC 19 October 2021
Temperature: 26.0°C (79°F)
Dewpoint: 20.0°C (68°F) [RH = 70%]
Pressure (altimeter): 30.00 inches Hg (1016.0 mb)
Winds: from the NNE (20 degrees) at 18 MPH (16 knots; 8.2 m/s)
Visibility: 6 or more miles (10+ km)
Ceiling: 3600 feet AGL
Clouds: scattered clouds at 2900 feet AGL
broken clouds at 3600 feet AGL
overcast cloud deck at 4000 feet AGL
Weather: no significant weather observed at this time

METAR text: ROYN 190600Z AUTO 02016KT 9999 BKN030 BKN036 OVC042 26/20 Q1016
Conditions at: ROYN (YONAGUNI AIRPORT, JP) observed 0600 UTC 19 October 2021
Temperature: 26.0°C (79°F)
Dewpoint: 20.0°C (68°F) [RH = 70%]
Pressure (altimeter): 30.00 inches Hg (1016.0 mb)
Winds: from the NNE (20 degrees) at 18 MPH (16 knots; 8.2 m/s)
Visibility: 6 or more miles (10+ km)
Ceiling: 3000 feet AGL
Clouds: broken clouds at 3000 feet AGL
broken clouds at 3600 feet AGL
overcast cloud deck at 4200 feet AGL
Weather: no significant weather observed at this time

METAR text: ROYN 190500Z AUTO 05010KT 9999 FEW029 SCT035 OVC039 25/20 Q1017
Conditions at: ROYN (YONAGUNI AIRPORT, JP) observed 0500 UTC 19 October 2021
Temperature: 25.0°C (77°F)
Dewpoint: 20.0°C (68°F) [RH = 74%]
Pressure (altimeter): 30.03 inches Hg (1017.0 mb)
Winds: from the NE (50 degrees) at 12 MPH (10 knots; 5.1 m/s)
Visibility: 6 or more miles (10+ km)
Ceiling: 3900 feet AGL
Clouds: few clouds at 2900 feet AGL
scattered clouds at 3500 feet AGL
overcast cloud deck at 3900 feet AGL
Weather: no significant weather observed at this time

METAR text: ROYN 190400Z AUTO 03014KT 9999 FEW027 SCT035 BKN041 26/20 Q1017
Conditions at: ROYN (YONAGUNI AIRPORT, JP) observed 0400 UTC 19 October 2021
Temperature: 26.0°C (79°F)
Dewpoint: 20.0°C (68°F) [RH = 70%]
Pressure (altimeter): 30.03 inches Hg (1017.0 mb)
Winds: from the NNE (30 degrees) at 16 MPH (14 knots; 7.2 m/s)
Visibility: 6 or more miles (10+ km)
Ceiling: 4100 feet AGL
Clouds: few clouds at 2700 feet AGL
scattered clouds at 3500 feet AGL
broken clouds at 4100 feet AGL
Weather: no significant weather observed at this time

METAR text: ROYN 190300Z AUTO 03016KT 9999 SCT024 BKN029 BKN034 26/21 Q1018
Conditions at: ROYN (YONAGUNI AIRPORT, JP) observed 0300 UTC 19 October 2021
Temperature: 26.0°C (79°F)
Dewpoint: 21.0°C (70°F) [RH = 74%]
Pressure (altimeter): 30.06 inches Hg (1018.0 mb)
Winds: from the NNE (30 degrees) at 18 MPH (16 knots; 8.2 m/s)
Visibility: 6 or more miles (10+ km)
Ceiling: 2900 feet AGL
Clouds: scattered clouds at 2400 feet AGL
broken clouds at 2900 feet AGL
broken clouds at 3400 feet AGL
Weather: no significant weather observed at this time

METAR text: ROYN 190200Z AUTO 04012KT 9999 FEW031 SCT041 BKN044 27/21 Q1019
Conditions at: ROYN (YONAGUNI AIRPORT, JP) observed 0200 UTC 19 October 2021
Temperature: 27.0°C (81°F)
Dewpoint: 21.0°C (70°F) [RH = 70%]
Pressure (altimeter): 30.09 inches Hg (1019.0 mb)
Winds: from the NE (40 degrees) at 14 MPH (12 knots; 6.2 m/s)
Visibility: 6 or more miles (10+ km)
Ceiling: 4400 feet AGL
Clouds: few clouds at 3100 feet AGL
scattered clouds at 4100 feet AGL
broken clouds at 4400 feet AGL
Weather: no significant weather observed at this time